createdAt,value
2022-10-06T00:00:50.379Z,100152.81
2022-10-06T00:03:33.976Z,100152.09
2022-10-06T00:06:03.086Z,100165.66
2022-10-06T00:08:32.417Z,100161.81
2022-10-06T00:10:59.756Z,100159.16
2022-10-06T00:13:28.636Z,100158.88
2022-10-06T00:15:56.389Z,100157.47
2022-10-06T00:18:23.716Z,100153.50
2022-10-06T00:20:58.902Z,100163.25
2022-10-06T00:23:28.590Z,100150.69
2022-10-06T00:25:56.477Z,100164.38
2022-10-06T00:28:23.690Z,100165.34
2022-10-06T00:30:53.578Z,100157.31
2022-10-06T00:33:21.161Z,100153.22
2022-10-06T00:35:56.965Z,100159.00
2022-10-06T00:38:25.161Z,100156.34
2022-10-06T00:40:52.472Z,100142.38
2022-10-06T00:43:38.446Z,100156.75
2022-10-06T00:46:08.321Z,100161.25
2022-10-06T00:48:36.145Z,100152.59
2022-10-06T00:51:03.866Z,100151.38
2022-10-06T00:53:31.974Z,100150.97
2022-10-06T00:55:59.237Z,100167.63
2022-10-06T00:58:26.954Z,100149.84
2022-10-06T01:00:55.358Z,100158.19
2022-10-06T01:03:30.176Z,100145.63
2022-10-06T01:06:00.121Z,100150.13
2022-10-06T01:08:27.722Z,100147.16
2022-10-06T01:10:55.164Z,100141.38
2022-10-06T01:13:22.975Z,100139.25
2022-10-06T01:15:56.861Z,100138.25
2022-10-06T01:18:28.078Z,100140.94
2022-10-06T01:21:09.423Z,100144.31
2022-10-06T01:23:40.016Z,100138.25
2022-10-06T01:26:10.929Z,100140.53
2022-10-06T01:28:39.283Z,100135.00
2022-10-06T01:31:09.121Z,100133.59
2022-10-06T01:33:36.378Z,100135.69
2022-10-06T01:36:04.719Z,100148.13
2022-10-06T01:38:32.644Z,100141.47
2022-10-06T01:41:03.883Z,100143.75
2022-10-06T01:43:31.059Z,100145.03
2022-10-06T01:45:59.509Z,100146.28
2022-10-06T01:48:28.054Z,100156.03
2022-10-06T01:50:57.912Z,100143.03
2022-10-06T01:53:25.402Z,100145.16
2022-10-06T01:55:58.173Z,100136.97
2022-10-06T01:58:27.179Z,100140.19
2022-10-06T02:00:54.752Z,100141.06
2022-10-06T02:03:21.989Z,100141.47
2022-10-06T02:05:49.428Z,100134.84
2022-10-06T02:08:16.703Z,100138.94
2022-10-06T02:10:44.255Z,100140.91
2022-10-06T02:13:20.265Z,100154.06
2022-10-06T02:15:47.579Z,100150.09
2022-10-06T02:18:14.721Z,100146.00
2022-10-06T02:20:42.122Z,100147.09
2022-10-06T02:23:09.471Z,100153.34
2022-10-06T02:25:36.617Z,100138.78
2022-10-06T02:28:04.271Z,100140.78
2022-10-06T02:30:32.739Z,100153.75
2022-10-06T02:33:00.078Z,100148.81
2022-10-06T02:35:28.243Z,100151.94
2022-10-06T02:37:55.640Z,100146.72
2022-10-06T02:40:23.156Z,100160.81
2022-10-06T02:42:51.442Z,100166.31
2022-10-06T02:45:21.240Z,100153.75
2022-10-06T02:47:48.566Z,100155.31
2022-10-06T02:50:15.991Z,100165.06
2022-10-06T02:52:43.239Z,100159.41
2022-10-06T02:55:11.652Z,100161.22
2022-10-06T02:57:39.549Z,100159.69
2022-10-06T03:00:08.524Z,100147.81
2022-10-06T03:02:36.135Z,100153.47
2022-10-06T03:05:05.151Z,100154.50
2022-10-06T03:07:33.659Z,100157.88
2022-10-06T03:10:00.815Z,100164.09
2022-10-06T03:12:28.606Z,100165.66
2022-10-06T03:14:55.884Z,100165.53
2022-10-06T03:17:23.155Z,100168.19
2022-10-06T03:19:57.025Z,100170.75
2022-10-06T03:22:25.609Z,100165.22
2022-10-06T03:24:55.708Z,100177.09
2022-10-06T03:27:23.247Z,100164.66
2022-10-06T03:29:53.545Z,100171.41
2022-10-06T03:32:24.157Z,100159.41
2022-10-06T03:34:53.368Z,100163.34
2022-10-06T03:37:20.888Z,100169.13
2022-10-06T03:39:48.419Z,100177.31
2022-10-06T03:42:16.072Z,100185.50
2022-10-06T03:44:43.363Z,100175.38
2022-10-06T03:47:16.092Z,100178.09
2022-10-06T03:49:44.562Z,100197.56
2022-10-06T03:52:12.847Z,100193.19
2022-10-06T03:54:40.034Z,100190.81
2022-10-06T03:57:07.237Z,100192.75
2022-10-06T03:59:34.860Z,100192.16
2022-10-06T04:02:05.537Z,100202.13
2022-10-06T04:04:37.548Z,100205.84
2022-10-06T04:07:11.783Z,100206.78
2022-10-06T04:09:40.133Z,100199.47
2022-10-06T04:12:09.075Z,100203.13
2022-10-06T04:14:38.352Z,100207.31
2022-10-06T04:17:07.112Z,100202.47
2022-10-06T04:19:36.740Z,100218.22
2022-10-06T04:22:04.164Z,100211.75
2022-10-06T04:24:32.424Z,100217.25
2022-10-06T04:27:19.564Z,100221.16
2022-10-06T04:29:58.533Z,100224.63
2022-10-06T04:32:25.832Z,100222.31
2022-10-06T04:34:53.133Z,100226.25
2022-10-06T04:37:20.601Z,100229.75
2022-10-06T04:39:49.222Z,100240.44
2022-10-06T04:42:16.401Z,100232.22
2022-10-06T04:44:44.558Z,100232.44
2022-10-06T04:47:11.719Z,100235.91
2022-10-06T04:49:39.620Z,100221.19
2022-10-06T04:52:08.225Z,100231.19
2022-10-06T04:54:37.603Z,100233.66
2022-10-06T04:57:06.093Z,100225.41
2022-10-06T04:59:52.416Z,100225.72
2022-10-06T05:02:20.823Z,100222.81
2022-10-06T05:04:51.918Z,100236.53
2022-10-06T05:07:20.975Z,100245.00
2022-10-06T05:09:48.461Z,100235.47
2022-10-06T05:12:15.842Z,100241.69
2022-10-06T05:14:45.527Z,100252.59
2022-10-06T05:17:12.682Z,100248.03
2022-10-06T05:19:40.148Z,100252.44
2022-10-06T05:22:08.029Z,100254.94
2022-10-06T05:24:36.076Z,100252.44
2022-10-06T05:27:04.473Z,100271.59
2022-10-06T05:29:34.482Z,100264.00
2022-10-06T05:32:03.521Z,100270.53
2022-10-06T05:34:30.922Z,100271.84
2022-10-06T05:36:58.146Z,100273.44
2022-10-06T05:39:25.532Z,100281.47
2022-10-06T05:41:56.640Z,100288.19
2022-10-06T05:44:24.927Z,100296.50
2022-10-06T05:46:52.329Z,100305.72
2022-10-06T05:49:20.345Z,100312.28
2022-10-06T05:51:53.228Z,100318.06
2022-10-06T05:54:29.038Z,100332.50
2022-10-06T05:56:56.480Z,100335.28
2022-10-06T05:59:23.915Z,100342.53
2022-10-06T06:01:53.427Z,100348.00
2022-10-06T06:04:31.672Z,100354.09
2022-10-06T06:06:59.060Z,100357.53
2022-10-06T06:09:28.892Z,100370.94
2022-10-06T06:12:00.330Z,100371.19
2022-10-06T06:15:02.365Z,100364.38
2022-10-06T06:17:38.109Z,100361.97
2022-10-06T06:20:06.806Z,100360.00
2022-10-06T06:22:35.932Z,100364.03
2022-10-06T06:25:05.074Z,100369.16
2022-10-06T06:27:32.482Z,100376.91
2022-10-06T06:29:59.773Z,100369.47
2022-10-06T06:32:28.737Z,100377.75
2022-10-06T06:34:57.451Z,100387.75
2022-10-06T06:37:25.210Z,100388.16
2022-10-06T06:39:52.584Z,100405.56
2022-10-06T06:42:21.468Z,100401.47
2022-10-06T06:44:56.211Z,100419.47
2022-10-06T06:47:37.493Z,100421.69
2022-10-06T06:50:10.396Z,100409.28
2022-10-06T06:52:39.327Z,100436.19
2022-10-06T06:55:09.540Z,100437.41
2022-10-06T06:57:37.108Z,100443.97
2022-10-06T07:00:08.103Z,100443.34
2022-10-06T07:02:37.343Z,100436.13
2022-10-06T07:05:05.358Z,100443.44
2022-10-06T07:07:32.654Z,100430.97
2022-10-06T07:10:00.845Z,100439.25
2022-10-06T07:12:29.660Z,100441.63
2022-10-06T07:15:17.006Z,100453.03
2022-10-06T07:18:05.987Z,100470.22
2022-10-06T07:20:51.885Z,100474.13
2022-10-06T07:23:39.733Z,100482.69
2022-10-06T07:26:11.882Z,100473.16
2022-10-06T07:28:42.481Z,100481.53
2022-10-06T07:31:10.860Z,100494.41
2022-10-06T07:33:40.956Z,100486.91
2022-10-06T07:36:09.848Z,100488.72
2022-10-06T07:38:39.892Z,100494.22
2022-10-06T07:41:18.945Z,100500.63
2022-10-06T07:44:00.910Z,100505.25
2022-10-06T07:46:33.415Z,100508.41
2022-10-06T07:49:09.975Z,100521.28
2022-10-06T07:51:37.423Z,100530.00
2022-10-06T07:54:04.892Z,100537.22
2022-10-06T07:56:55.724Z,100550.56
2022-10-06T07:59:22.866Z,100547.91
2022-10-06T08:01:52.527Z,100556.19
2022-10-06T08:04:20.031Z,100555.78
2022-10-06T08:06:49.517Z,100549.31
2022-10-06T08:09:16.679Z,100553.50
2022-10-06T08:11:45.168Z,100565.97
2022-10-06T08:14:15.116Z,100561.97
2022-10-06T08:16:42.373Z,100570.56
2022-10-06T08:19:11.690Z,100582.66
2022-10-06T08:21:39.716Z,100585.53
2022-10-06T08:24:07.308Z,100586.44
2022-10-06T08:26:34.811Z,100597.94
2022-10-06T08:29:03.430Z,100600.94
2022-10-06T08:31:32.163Z,100595.72
2022-10-06T08:33:59.725Z,100597.38
2022-10-06T08:36:31.464Z,100612.50
2022-10-06T08:39:00.177Z,100613.22
2022-10-06T08:41:37.070Z,100622.72
2022-10-06T08:44:18.606Z,100631.72
2022-10-06T08:47:13.913Z,100637.44
2022-10-06T08:49:46.789Z,100643.41
2022-10-06T08:52:37.481Z,100642.81
2022-10-06T08:55:07.686Z,100661.13
2022-10-06T08:57:47.291Z,100655.69
2022-10-06T09:00:21.171Z,100643.59
2022-10-06T09:02:50.705Z,100656.19
2022-10-06T09:05:28.456Z,100659.66
2022-10-06T09:07:56.346Z,100670.66
2022-10-06T09:10:39.490Z,100668.66
2022-10-06T09:13:21.592Z,100678.06
2022-10-06T09:15:55.466Z,100672.66
2022-10-06T09:18:49.787Z,100690.06
2022-10-06T09:21:26.634Z,100695.88
2022-10-06T09:24:05.973Z,100691.38
2022-10-06T09:26:34.321Z,100689.78
2022-10-06T09:29:01.825Z,100691.50
2022-10-06T09:31:38.234Z,100719.44
2022-10-06T09:34:05.703Z,100711.53
2022-10-06T09:36:32.867Z,100704.56
2022-10-06T09:39:00.514Z,100741.00
2022-10-06T09:41:33.319Z,100741.84
2022-10-06T09:44:25.157Z,100749.31
2022-10-06T09:46:52.696Z,100759.28
2022-10-06T09:49:22.701Z,100746.22
2022-10-06T09:52:16.285Z,100766.63
2022-10-06T09:54:44.839Z,100790.44
2022-10-06T09:57:16.528Z,100783.38
2022-10-06T09:59:46.034Z,100785.44
2022-10-06T10:02:37.250Z,100796.84
2022-10-06T10:05:07.744Z,100789.38
2022-10-06T10:07:36.382Z,100791.09
2022-10-06T10:10:21.328Z,100802.28
2022-10-06T10:12:53.806Z,100813.50
2022-10-06T10:15:20.917Z,100808.34
2022-10-06T10:17:57.251Z,100827.16
2022-10-06T10:20:51.098Z,100824.63
2022-10-06T10:23:28.589Z,100831.13
2022-10-06T10:26:14.334Z,100846.09
2022-10-06T10:28:42.788Z,100849.38
2022-10-06T10:31:39.354Z,100843.88
2022-10-06T10:34:24.289Z,100850.19
2022-10-06T10:36:57.679Z,100850.34
2022-10-06T10:39:37.010Z,100851.41
2022-10-06T10:42:12.181Z,100854.81
2022-10-06T10:44:50.548Z,100867.50
2022-10-06T10:47:25.934Z,100867.81
2022-10-06T10:50:02.728Z,100860.47
2022-10-06T10:52:38.337Z,100888.38
2022-10-06T10:55:27.478Z,100889.06
2022-10-06T10:58:13.449Z,100893.16
2022-10-06T11:00:45.975Z,100894.41
2022-10-06T11:03:13.515Z,100902.69
2022-10-06T11:05:43.335Z,100898.31
2022-10-06T11:08:34.834Z,100893.34
2022-10-06T11:11:08.492Z,100910.66
2022-10-06T11:13:48.353Z,100910.91
2022-10-06T11:16:28.505Z,100909.38
2022-10-06T11:19:29.900Z,100918.56
2022-10-06T11:22:08.285Z,100921.94
2022-10-06T11:24:59.662Z,100910.06
2022-10-06T11:27:37.027Z,100924.78
2022-10-06T11:30:15.333Z,100904.25
2022-10-06T11:32:54.637Z,100919.53
2022-10-06T11:35:29.865Z,100917.84
2022-10-06T11:38:07.482Z,100927.19
2022-10-06T11:40:52.871Z,100927.53
2022-10-06T11:43:34.354Z,100930.34
2022-10-06T11:46:14.169Z,100913.41
2022-10-06T11:48:43.821Z,100898.00
2022-10-06T11:51:17.323Z,100921.94
2022-10-06T11:53:45.229Z,100932.84
2022-10-06T11:56:19.560Z,100941.63
2022-10-06T11:58:55.957Z,100952.50
2022-10-06T12:01:35.331Z,100956.91
2022-10-06T12:04:08.781Z,100944.72
2022-10-06T12:06:41.916Z,100945.66
2022-10-06T12:09:40.337Z,100951.78
2022-10-06T12:12:19.650Z,100962.31
2022-10-06T12:18:01.489Z,100960.31
2022-10-06T12:20:47.575Z,100957.06
2022-10-06T12:23:38.657Z,100973.16
2022-10-06T12:26:19.971Z,100968.19
2022-10-06T12:28:56.401Z,100994.28
2022-10-06T12:31:53.898Z,100984.69
2022-10-06T12:34:39.330Z,100981.44
2022-10-06T12:37:28.657Z,100979.63
2022-10-06T12:40:33.189Z,100995.06
2022-10-06T12:43:12.380Z,101003.53
2022-10-06T12:45:46.301Z,101002.88
2022-10-06T12:48:36.425Z,101001.38
2022-10-06T12:51:28.168Z,101005.53
2022-10-06T12:54:00.028Z,101014.66
2022-10-06T12:56:34.184Z,100992.34
2022-10-06T12:59:44.120Z,100993.97
2022-10-06T13:02:19.201Z,101026.66
2022-10-06T13:04:55.457Z,101026.88
2022-10-06T13:07:28.634Z,101028.03
2022-10-06T13:10:21.662Z,101021.75
2022-10-06T13:12:52.044Z,101013.41
2022-10-06T13:15:41.568Z,101024.47
2022-10-06T13:18:22.116Z,101036.47
2022-10-06T13:20:52.577Z,101030.81
2022-10-06T13:23:31.185Z,101029.34
2022-10-06T13:26:15.087Z,101050.16
2022-10-06T13:28:42.270Z,101045.56
2022-10-06T13:31:18.154Z,101042.97
2022-10-06T13:33:47.577Z,101063.84
2022-10-06T13:36:15.403Z,101049.63
2022-10-06T13:38:42.997Z,101042.19
2022-10-06T13:41:30.341Z,101051.47
2022-10-06T13:44:00.470Z,101056.81
2022-10-06T13:46:31.156Z,101063.69
2022-10-06T13:49:03.442Z,101064.72
2022-10-06T13:51:32.771Z,101062.41
2022-10-06T13:54:04.134Z,101065.41
2022-10-06T13:56:40.117Z,101065.88
2022-10-06T13:59:38.414Z,101075.97
2022-10-06T14:02:17.971Z,101078.38
2022-10-06T14:05:05.723Z,101070.44
2022-10-06T14:07:33.247Z,101088.75
2022-10-06T14:10:00.493Z,101083.41
2022-10-06T14:12:27.664Z,101091.59
2022-10-06T14:14:55.151Z,101084.19
2022-10-06T14:17:25.724Z,101084.84
2022-10-06T14:19:52.892Z,101087.38
2022-10-06T14:22:38.335Z,101087.09
2022-10-06T14:25:12.070Z,101096.97
2022-10-06T14:27:39.451Z,101092.03
2022-10-06T14:30:07.563Z,101102.25
2022-10-06T14:32:38.841Z,101109.09
2022-10-06T14:35:10.916Z,101104.72
2022-10-06T14:37:38.117Z,101107.09
2022-10-06T14:40:11.538Z,101110.06
2022-10-06T14:42:39.259Z,101113.44
2022-10-06T14:45:08.102Z,101121.97
2022-10-06T14:47:35.286Z,101116.25
2022-10-06T14:50:02.689Z,101120.47
2022-10-06T14:52:29.844Z,101107.38
2022-10-06T14:54:57.867Z,101125.59
2022-10-06T14:57:25.376Z,101136.06
2022-10-06T14:59:52.865Z,101137.75
2022-10-06T15:02:21.212Z,101129.56
2022-10-06T15:04:48.462Z,101145.28
2022-10-06T15:07:34.505Z,101145.84
2022-10-06T15:10:03.724Z,101145.56
2022-10-06T15:12:33.935Z,101150.91
2022-10-06T15:15:01.425Z,101160.69
2022-10-06T15:17:30.163Z,101178.38
2022-10-06T15:19:57.493Z,101176.72
2022-10-06T15:22:24.662Z,101181.38
2022-10-06T15:24:52.070Z,101190.00
2022-10-06T15:27:37.950Z,101187.03
2022-10-06T15:30:05.894Z,101190.16
2022-10-06T15:32:33.047Z,101187.63
2022-10-06T15:35:00.356Z,101190.31
2022-10-06T15:37:27.769Z,101185.19
2022-10-06T15:39:54.913Z,101188.88
2022-10-06T15:42:24.264Z,101199.84
2022-10-06T15:44:52.115Z,101198.00
2022-10-06T15:47:19.343Z,101199.38
2022-10-06T15:49:47.111Z,101214.13
2022-10-06T15:52:14.545Z,101212.31
2022-10-06T15:54:41.874Z,101211.25
2022-10-06T15:57:15.216Z,101210.94
2022-10-06T15:59:45.246Z,101224.69
2022-10-06T16:02:14.889Z,101235.66
2022-10-06T16:04:43.258Z,101224.53
2022-10-06T16:07:14.128Z,101232.59
2022-10-06T16:09:49.583Z,101236.19
2022-10-06T16:12:19.955Z,101238.38
2022-10-06T16:14:47.822Z,101255.75
2022-10-06T16:17:15.729Z,101258.59
2022-10-06T16:19:43.257Z,101256.41
2022-10-06T16:22:16.614Z,101267.66
2022-10-06T16:24:44.163Z,101266.34
2022-10-06T16:27:15.856Z,101280.66
2022-10-06T16:29:43.072Z,101281.38
2022-10-06T16:32:10.900Z,101285.25
2022-10-06T16:34:38.265Z,101280.66
2022-10-06T16:37:05.772Z,101289.78
2022-10-06T16:39:32.995Z,101288.38
2022-10-06T16:42:00.449Z,101284.78
2022-10-06T16:44:27.592Z,101291.69
2022-10-06T16:46:54.950Z,101292.34
2022-10-06T16:49:24.529Z,101291.19
2022-10-06T16:51:51.732Z,101294.47
2022-10-06T16:54:18.990Z,101298.28
2022-10-06T16:56:48.657Z,101297.97
2022-10-06T16:59:20.617Z,101305.53
2022-10-06T17:01:49.273Z,101320.41
2022-10-06T17:04:19.701Z,101315.97
2022-10-06T17:06:50.063Z,101317.44
2022-10-06T17:09:20.039Z,101318.22
2022-10-06T17:11:50.930Z,101317.16
2022-10-06T17:14:28.875Z,101321.13
2022-10-06T17:17:05.885Z,101319.72
2022-10-06T17:19:39.924Z,101322.34
2022-10-06T17:22:12.225Z,101334.22
2022-10-06T17:24:41.024Z,101334.22
2022-10-06T17:27:08.905Z,101333.41
2022-10-06T17:29:37.189Z,101332.44
2022-10-06T17:32:05.363Z,101331.03
2022-10-06T17:34:34.508Z,101330.84
2022-10-06T17:37:02.661Z,101335.09
2022-10-06T17:39:30.678Z,101339.78
2022-10-06T17:41:57.954Z,101341.16
2022-10-06T17:44:29.223Z,101332.38
2022-10-06T17:46:58.892Z,101340.16
2022-10-06T17:49:26.614Z,101336.53
2022-10-06T17:51:55.345Z,101349.97
2022-10-06T17:54:25.477Z,101341.75
2022-10-06T17:56:55.963Z,101348.19
2022-10-06T17:59:28.567Z,101354.13
2022-10-06T18:01:57.855Z,101346.84
2022-10-06T18:04:26.608Z,101345.63
2022-10-06T18:06:54.287Z,101348.00
2022-10-06T18:09:22.202Z,101353.63
2022-10-06T18:11:54.996Z,101361.19
2022-10-06T18:14:25.193Z,101354.69
2022-10-06T18:16:59.934Z,101360.59
2022-10-06T18:19:32.170Z,101366.72
2022-10-06T18:22:02.405Z,101355.66
2022-10-06T18:24:31.722Z,101352.78
2022-10-06T18:27:01.004Z,101356.13
2022-10-06T18:29:33.737Z,101376.13
2022-10-06T18:32:38.579Z,101363.78
2022-10-06T18:37:36.592Z,101371.47
2022-10-06T18:40:06.994Z,101367.97
2022-10-06T18:42:34.487Z,101370.94
2022-10-06T18:45:20.615Z,101385.28
2022-10-06T18:48:06.387Z,101381.22
2022-10-06T18:50:35.241Z,101388.94
2022-10-06T18:53:04.336Z,101382.97
2022-10-06T18:55:32.079Z,101384.69
2022-10-06T18:57:59.464Z,101393.84
2022-10-06T19:00:26.711Z,101388.59
2022-10-06T19:02:56.171Z,101384.16
2022-10-06T19:05:23.844Z,101387.50
2022-10-06T19:07:53.813Z,101391.41
2022-10-06T19:10:21.372Z,101396.53
2022-10-06T19:12:48.646Z,101386.25
2022-10-06T19:15:20.357Z,101384.41
2022-10-06T19:17:49.777Z,101398.50
2022-10-06T19:20:18.564Z,101404.03
2022-10-06T19:22:47.745Z,101398.13
2022-10-06T19:25:18.912Z,101398.63
2022-10-06T19:27:46.911Z,101397.75
2022-10-06T19:30:14.623Z,101394.69
2022-10-06T19:32:41.869Z,101391.50
2022-10-06T19:35:10.569Z,101398.63
2022-10-06T19:37:38.827Z,101393.72
2022-10-06T19:40:08.750Z,101397.25
2022-10-06T19:42:48.096Z,101414.78
2022-10-06T19:45:17.311Z,101411.25
2022-10-06T19:47:45.737Z,101417.72
2022-10-06T19:50:13.691Z,101424.81
2022-10-06T19:52:42.366Z,101429.47
2022-10-06T19:55:09.688Z,101421.25
2022-10-06T19:57:36.893Z,101424.09
2022-10-06T20:00:06.095Z,101425.06
2022-10-06T20:02:42.733Z,101430.22
2022-10-06T20:05:15.812Z,101427.97
2022-10-06T20:07:45.727Z,101427.47
2022-10-06T20:10:14.029Z,101422.59
2022-10-06T20:12:41.622Z,101432.84
2022-10-06T20:15:10.200Z,101428.59
2022-10-06T20:17:37.894Z,101435.75
2022-10-06T20:20:05.574Z,101437.44
2022-10-06T20:22:32.821Z,101435.75
2022-10-06T20:25:02.003Z,101437.41
2022-10-06T20:27:29.846Z,101443.81
2022-10-06T20:29:58.076Z,101429.66
2022-10-06T20:32:25.496Z,101445.09
2022-10-06T20:34:52.905Z,101451.91
2022-10-06T20:37:20.078Z,101439.28
2022-10-06T20:40:19.692Z,101439.53
2022-10-06T20:42:49.561Z,101442.88
2022-10-06T20:45:17.181Z,101439.59
2022-10-06T20:47:45.703Z,101434.56
2022-10-06T20:50:13.945Z,101441.16
2022-10-06T20:52:41.171Z,101451.16
2022-10-06T20:55:08.715Z,101450.22
2022-10-06T20:57:36.452Z,101435.28
2022-10-06T21:00:04.276Z,101443.22
2022-10-06T21:02:33.412Z,101441.91
2022-10-06T21:05:02.245Z,101439.84
2022-10-06T21:07:29.521Z,101443.75
2022-10-06T21:09:56.939Z,101438.75
2022-10-06T21:12:24.354Z,101442.66
2022-10-06T21:14:51.946Z,101440.53
2022-10-06T21:17:19.869Z,101446.78
2022-10-06T21:19:47.050Z,101451.78
2022-10-06T21:22:14.398Z,101441.47
2022-10-06T21:24:41.879Z,101445.28
2022-10-06T21:27:09.071Z,101437.09
2022-10-06T21:29:36.435Z,101439.06
2022-10-06T21:32:03.832Z,101428.78
2022-10-06T21:34:31.717Z,101435.75
2022-10-06T21:36:59.049Z,101439.59
2022-10-06T21:39:26.428Z,101432.25
2022-10-06T21:41:53.646Z,101442.25
2022-10-06T21:44:20.929Z,101433.69
2022-10-06T21:46:51.016Z,101442.97
2022-10-06T21:49:20.642Z,101442.75
2022-10-06T21:51:50.306Z,101442.06
2022-10-06T21:54:18.151Z,101441.13
2022-10-06T21:56:45.821Z,101444.34
2022-10-06T21:59:13.494Z,101439.38
2022-10-06T22:01:45.755Z,101437.56
2022-10-06T22:04:14.661Z,101440.56
2022-10-06T22:06:44.588Z,101444.22
2022-10-06T22:09:20.737Z,101444.94
2022-10-06T22:11:49.272Z,101453.31
2022-10-06T22:14:18.098Z,101447.78
2022-10-06T22:16:45.557Z,101451.72
2022-10-06T22:19:14.821Z,101446.78
2022-10-06T22:21:44.446Z,101449.22
2022-10-06T22:24:17.971Z,101444.03
2022-10-06T22:26:46.143Z,101454.34
2022-10-06T22:29:15.775Z,101445.19
2022-10-06T22:31:44.702Z,101446.41
2022-10-06T22:34:15.805Z,101444.19
2022-10-06T22:36:43.097Z,101444.72
2022-10-06T22:39:10.844Z,101442.94
2022-10-06T22:41:38.531Z,101438.06
2022-10-06T22:44:05.766Z,101446.72
2022-10-06T22:46:35.650Z,101437.31
2022-10-06T22:49:04.511Z,101449.31
2022-10-06T22:51:31.784Z,101446.13
2022-10-06T22:54:00.025Z,101443.06
2022-10-06T22:56:29.875Z,101445.34
2022-10-06T22:58:59.892Z,101435.00
2022-10-06T23:01:28.888Z,101450.16
2022-10-06T23:03:57.479Z,101453.16
2022-10-06T23:06:25.070Z,101444.13
2022-10-06T23:08:52.799Z,101446.31
2022-10-06T23:11:21.734Z,101448.19
2022-10-06T23:13:50.513Z,101432.81
2022-10-06T23:16:19.562Z,101439.56
2022-10-06T23:18:48.056Z,101426.06
2022-10-06T23:21:21.972Z,101444.53
2022-10-06T23:23:56.051Z,101444.03
2022-10-06T23:26:23.860Z,101442.72
2022-10-06T23:28:56.730Z,101435.06
2022-10-06T23:31:24.755Z,101434.78
2022-10-06T23:33:52.614Z,101447.41
2022-10-06T23:36:19.835Z,101438.44
2022-10-06T23:38:47.896Z,101441.81
2022-10-06T23:41:15.848Z,101437.03
2022-10-06T23:43:43.711Z,101433.44
2022-10-06T23:46:11.538Z,101439.56
2022-10-06T23:48:39.027Z,101437.13
2022-10-06T23:51:12.580Z,101438.09
2022-10-06T23:53:40.182Z,101427.88
2022-10-06T23:56:08.295Z,101437.59
2022-10-06T23:58:35.603Z,101440.41
